sensor_id;sensor_type;location;lat;lon;timestamp;P1;durP1;ratioP1;P2;durP2;ratioP2
72676;SDS011;60755;51.374;10.662;2023-11-19T00:01:03;20.97;;;4.10;;
72676;SDS011;60755;51.374;10.662;2023-11-19T00:03:30;4.27;;;3.97;;
72676;SDS011;60755;51.374;10.662;2023-11-19T00:05:58;7.07;;;3.90;;
72676;SDS011;60755;51.374;10.662;2023-11-19T00:08:25;6.77;;;3.60;;
72676;SDS011;60755;51.374;10.662;2023-11-19T00:10:52;3.97;;;3.70;;
72676;SDS011;60755;51.374;10.662;2023-11-19T00:13:19;4.30;;;3.90;;
72676;SDS011;60755;51.374;10.662;2023-11-19T00:15:46;4.00;;;3.70;;
72676;SDS011;60755;51.374;10.662;2023-11-19T00:18:15;3.90;;;3.60;;
72676;SDS011;60755;51.374;10.662;2023-11-19T00:20:42;36.23;;;4.80;;
72676;SDS011;60755;51.374;10.662;2023-11-19T00:23:10;57.10;;;5.20;;
72676;SDS011;60755;51.374;10.662;2023-11-19T00:25:37;18.70;;;4.40;;
72676;SDS011;60755;51.374;10.662;2023-11-19T00:28:04;262.50;;;12.23;;
72676;SDS011;60755;51.374;10.662;2023-11-19T00:30:31;17.40;;;4.40;;
72676;SDS011;60755;51.374;10.662;2023-11-19T00:32:59;58.77;;;5.50;;
72676;SDS011;60755;51.374;10.662;2023-11-19T00:35:27;121.47;;;8.27;;
72676;SDS011;60755;51.374;10.662;2023-11-19T00:37:54;296.27;;;11.50;;
72676;SDS011;60755;51.374;10.662;2023-11-19T00:40:21;119.07;;;7.40;;
72676;SDS011;60755;51.374;10.662;2023-11-19T00:42:48;259.33;;;10.20;;
72676;SDS011;60755;51.374;10.662;2023-11-19T00:45:15;152.73;;;8.77;;
72676;SDS011;60755;51.374;10.662;2023-11-19T00:47:42;87.43;;;7.33;;
72676;SDS011;60755;51.374;10.662;2023-11-19T00:50:09;106.23;;;8.13;;
72676;SDS011;60755;51.374;10.662;2023-11-19T00:52:39;305.10;;;12.30;;
72676;SDS011;60755;51.374;10.662;2023-11-19T00:55:06;101.50;;;7.53;;
72676;SDS011;60755;51.374;10.662;2023-11-19T00:57:33;9.73;;;4.20;;
72676;SDS011;60755;51.374;10.662;2023-11-19T01:00:00;5.63;;;4.23;;
72676;SDS011;60755;51.374;10.662;2023-11-19T01:02:32;4.57;;;4.17;;
72676;SDS011;60755;51.374;10.662;2023-11-19T01:05:00;4.93;;;4.53;;
72676;SDS011;60755;51.374;10.662;2023-11-19T01:07:27;5.13;;;4.03;;
72676;SDS011;60755;51.374;10.662;2023-11-19T01:09:55;4.37;;;3.97;;
72676;SDS011;60755;51.374;10.662;2023-11-19T01:12:22;4.20;;;3.80;;
72676;SDS011;60755;51.374;10.662;2023-11-19T01:14:50;5.73;;;4.17;;
72676;SDS011;60755;51.374;10.662;2023-11-19T01:17:17;4.10;;;3.80;;
72676;SDS011;60755;51.374;10.662;2023-11-19T01:19:44;4.47;;;4.07;;
72676;SDS011;60755;51.374;10.662;2023-11-19T01:22:11;4.07;;;3.77;;
72676;SDS011;60755;51.374;10.662;2023-11-19T01:24:37;4.50;;;4.10;;
72676;SDS011;60755;51.374;10.662;2023-11-19T01:27:06;5.00;;;4.50;;
72676;SDS011;60755;51.374;10.662;2023-11-19T01:29:34;4.80;;;4.40;;
72676;SDS011;60755;51.374;10.662;2023-11-19T01:32:00;4.87;;;4.43;;
72676;SDS011;60755;51.374;10.662;2023-11-19T01:34:27;7.93;;;4.40;;
72676;SDS011;60755;51.374;10.662;2023-11-19T01:36:54;4.33;;;3.93;;
72676;SDS011;60755;51.374;10.662;2023-11-19T01:39:21;5.23;;;4.73;;
72676;SDS011;60755;51.374;10.662;2023-11-19T01:41:48;4.23;;;3.93;;
72676;SDS011;60755;51.374;10.662;2023-11-19T01:44:17;3.83;;;3.53;;
72676;SDS011;60755;51.374;10.662;2023-11-19T01:46:44;4.20;;;3.87;;
72676;SDS011;60755;51.374;10.662;2023-11-19T01:49:14;3.90;;;3.60;;
72676;SDS011;60755;51.374;10.662;2023-11-19T01:51:42;3.93;;;3.67;;
72676;SDS011;60755;51.374;10.662;2023-11-19T01:54:09;3.37;;;3.17;;
72676;SDS011;60755;51.374;10.662;2023-11-19T01:56:37;3.90;;;3.60;;
72676;SDS011;60755;51.374;10.662;2023-11-19T01:59:07;3.23;;;3.03;;
72676;SDS011;60755;51.374;10.662;2023-11-19T02:01:40;3.73;;;3.43;;
72676;SDS011;60755;51.374;10.662;2023-11-19T02:04:08;3.60;;;3.33;;
72676;SDS011;60755;51.374;10.662;2023-11-19T02:06:36;3.17;;;2.97;;
72676;SDS011;60755;51.374;10.662;2023-11-19T02:09:07;3.20;;;3.00;;
72676;SDS011;60755;51.374;10.662;2023-11-19T02:11:35;2.93;;;2.83;;
72676;SDS011;60755;51.374;10.662;2023-11-19T02:14:04;2.70;;;2.60;;
72676;SDS011;60755;51.374;10.662;2023-11-19T02:16:31;2.60;;;2.40;;
72676;SDS011;60755;51.374;10.662;2023-11-19T02:18:59;2.43;;;2.33;;
72676;SDS011;60755;51.374;10.662;2023-11-19T02:21:26;2.40;;;2.30;;
72676;SDS011;60755;51.374;10.662;2023-11-19T02:23:53;2.40;;;2.30;;
72676;SDS011;60755;51.374;10.662;2023-11-19T02:26:24;2.57;;;2.47;;
72676;SDS011;60755;51.374;10.662;2023-11-19T02:28:57;2.50;;;2.30;;
72676;SDS011;60755;51.374;10.662;2023-11-19T02:31:24;2.30;;;2.20;;
72676;SDS011;60755;51.374;10.662;2023-11-19T02:33:53;1.90;;;1.90;;
72676;SDS011;60755;51.374;10.662;2023-11-19T02:36:20;3.53;;;2.07;;
72676;SDS011;60755;51.374;10.662;2023-11-19T02:38:48;2.20;;;2.10;;
72676;SDS011;60755;51.374;10.662;2023-11-19T02:41:15;1.97;;;1.87;;
72676;SDS011;60755;51.374;10.662;2023-11-19T02:43:42;1.90;;;1.80;;
72676;SDS011;60755;51.374;10.662;2023-11-19T02:46:10;2.13;;;1.93;;
72676;SDS011;60755;51.374;10.662;2023-11-19T02:48:37;1.90;;;1.80;;
72676;SDS011;60755;51.374;10.662;2023-11-19T02:51:05;2.10;;;2.00;;
72676;SDS011;60755;51.374;10.662;2023-11-19T02:53:34;1.77;;;1.73;;
72676;SDS011;60755;51.374;10.662;2023-11-19T02:56:02;1.40;;;1.40;;
72676;SDS011;60755;51.374;10.662;2023-11-19T02:58:42;1.70;;;1.70;;
72676;SDS011;60755;51.374;10.662;2023-11-19T03:01:12;1.47;;;1.47;;
72676;SDS011;60755;51.374;10.662;2023-11-19T03:03:48;1.80;;;1.70;;
72676;SDS011;60755;51.374;10.662;2023-11-19T03:06:19;1.93;;;1.87;;
72676;SDS011;60755;51.374;10.662;2023-11-19T03:08:47;2.00;;;2.00;;
72676;SDS011;60755;51.374;10.662;2023-11-19T03:11:14;1.80;;;1.80;;
72676;SDS011;60755;51.374;10.662;2023-11-19T03:13:41;1.70;;;1.70;;
72676;SDS011;60755;51.374;10.662;2023-11-19T03:16:08;1.93;;;1.93;;
72676;SDS011;60755;51.374;10.662;2023-11-19T03:18:38;1.80;;;1.80;;
72676;SDS011;60755;51.374;10.662;2023-11-19T03:21:06;1.70;;;1.70;;
72676;SDS011;60755;51.374;10.662;2023-11-19T03:23:34;1.60;;;1.60;;
72676;SDS011;60755;51.374;10.662;2023-11-19T03:26:01;1.70;;;1.70;;
72676;SDS011;60755;51.374;10.662;2023-11-19T03:28:31;1.60;;;1.60;;
72676;SDS011;60755;51.374;10.662;2023-11-19T03:30:58;1.40;;;1.23;;
72676;SDS011;60755;51.374;10.662;2023-11-19T03:33:25;1.10;;;1.10;;
72676;SDS011;60755;51.374;10.662;2023-11-19T03:35:54;1.20;;;1.20;;
72676;SDS011;60755;51.374;10.662;2023-11-19T03:38:23;1.30;;;1.30;;
72676;SDS011;60755;51.374;10.662;2023-11-19T03:40:50;1.20;;;1.20;;
72676;SDS011;60755;51.374;10.662;2023-11-19T03:43:17;1.10;;;1.10;;
72676;SDS011;60755;51.374;10.662;2023-11-19T03:45:45;1.10;;;1.10;;
72676;SDS011;60755;51.374;10.662;2023-11-19T03:48:13;1.10;;;1.10;;
72676;SDS011;60755;51.374;10.662;2023-11-19T03:50:42;1.10;;;1.10;;
72676;SDS011;60755;51.374;10.662;2023-11-19T03:53:11;0.90;;;0.90;;
72676;SDS011;60755;51.374;10.662;2023-11-19T03:55:39;1.20;;;1.20;;
72676;SDS011;60755;51.374;10.662;2023-11-19T03:58:05;1.30;;;1.20;;
72676;SDS011;60755;51.374;10.662;2023-11-19T04:00:32;1.10;;;1.10;;
72676;SDS011;60755;51.374;10.662;2023-11-19T04:02:59;1.20;;;1.20;;
72676;SDS011;60755;51.374;10.662;2023-11-19T04:05:26;1.20;;;1.20;;
72676;SDS011;60755;51.374;10.662;2023-11-19T04:07:53;1.20;;;1.20;;
72676;SDS011;60755;51.374;10.662;2023-11-19T04:10:22;1.10;;;1.10;;
72676;SDS011;60755;51.374;10.662;2023-11-19T04:12:49;1.13;;;1.13;;
72676;SDS011;60755;51.374;10.662;2023-11-19T04:15:16;1.20;;;1.20;;
72676;SDS011;60755;51.374;10.662;2023-11-19T04:17:43;2.00;;;1.10;;
72676;SDS011;60755;51.374;10.662;2023-11-19T04:20:10;1.10;;;1.10;;
72676;SDS011;60755;51.374;10.662;2023-11-19T04:22:38;1.17;;;1.17;;
72676;SDS011;60755;51.374;10.662;2023-11-19T04:25:06;1.30;;;1.30;;
72676;SDS011;60755;51.374;10.662;2023-11-19T04:27:35;1.30;;;1.30;;
72676;SDS011;60755;51.374;10.662;2023-11-19T04:30:02;1.30;;;1.30;;
72676;SDS011;60755;51.374;10.662;2023-11-19T04:32:31;1.00;;;1.00;;
72676;SDS011;60755;51.374;10.662;2023-11-19T04:34:58;1.20;;;1.20;;
72676;SDS011;60755;51.374;10.662;2023-11-19T04:37:25;1.10;;;1.10;;
72676;SDS011;60755;51.374;10.662;2023-11-19T04:39:52;1.17;;;1.17;;
72676;SDS011;60755;51.374;10.662;2023-11-19T04:42:19;1.20;;;1.20;;
72676;SDS011;60755;51.374;10.662;2023-11-19T04:44:49;1.07;;;1.00;;
72676;SDS011;60755;51.374;10.662;2023-11-19T04:47:16;0.97;;;0.97;;
72676;SDS011;60755;51.374;10.662;2023-11-19T04:49:43;1.10;;;1.10;;
72676;SDS011;60755;51.374;10.662;2023-11-19T04:52:10;1.20;;;1.20;;
72676;SDS011;60755;51.374;10.662;2023-11-19T04:54:40;1.20;;;1.20;;
72676;SDS011;60755;51.374;10.662;2023-11-19T04:57:07;1.20;;;1.20;;
72676;SDS011;60755;51.374;10.662;2023-11-19T04:59:36;0.97;;;0.97;;
72676;SDS011;60755;51.374;10.662;2023-11-19T05:02:04;1.10;;;1.10;;
72676;SDS011;60755;51.374;10.662;2023-11-19T05:04:31;1.07;;;1.07;;
72676;SDS011;60755;51.374;10.662;2023-11-19T05:06:58;0.90;;;0.90;;
72676;SDS011;60755;51.374;10.662;2023-11-19T05:09:25;0.90;;;0.90;;
72676;SDS011;60755;51.374;10.662;2023-11-19T05:11:52;1.00;;;1.00;;
72676;SDS011;60755;51.374;10.662;2023-11-19T05:14:19;1.00;;;1.00;;
72676;SDS011;60755;51.374;10.662;2023-11-19T05:16:47;1.10;;;1.10;;
72676;SDS011;60755;51.374;10.662;2023-11-19T05:19:15;1.20;;;1.20;;
72676;SDS011;60755;51.374;10.662;2023-11-19T05:21:41;1.47;;;1.30;;
72676;SDS011;60755;51.374;10.662;2023-11-19T05:24:09;1.40;;;1.40;;
72676;SDS011;60755;51.374;10.662;2023-11-19T05:26:37;1.60;;;1.60;;
72676;SDS011;60755;51.374;10.662;2023-11-19T05:29:04;1.40;;;1.40;;
72676;SDS011;60755;51.374;10.662;2023-11-19T05:31:31;1.60;;;1.60;;
72676;SDS011;60755;51.374;10.662;2023-11-19T05:33:58;1.67;;;1.60;;
72676;SDS011;60755;51.374;10.662;2023-11-19T05:36:27;1.53;;;1.53;;
72676;SDS011;60755;51.374;10.662;2023-11-19T05:38:54;1.80;;;1.70;;
72676;SDS011;60755;51.374;10.662;2023-11-19T05:41:21;1.93;;;1.93;;
72676;SDS011;60755;51.374;10.662;2023-11-19T05:43:48;1.90;;;1.80;;
72676;SDS011;60755;51.374;10.662;2023-11-19T05:46:15;2.07;;;2.03;;
72676;SDS011;60755;51.374;10.662;2023-11-19T05:48:42;1.83;;;1.83;;
72676;SDS011;60755;51.374;10.662;2023-11-19T05:51:11;2.20;;;2.03;;
72676;SDS011;60755;51.374;10.662;2023-11-19T05:53:39;2.20;;;2.10;;
72676;SDS011;60755;51.374;10.662;2023-11-19T05:56:06;2.00;;;2.00;;
72676;SDS011;60755;51.374;10.662;2023-11-19T05:58:35;1.93;;;1.90;;
72676;SDS011;60755;51.374;10.662;2023-11-19T06:01:02;2.17;;;2.17;;
72676;SDS011;60755;51.374;10.662;2023-11-19T06:03:32;2.27;;;2.20;;
72676;SDS011;60755;51.374;10.662;2023-11-19T06:05:59;2.40;;;2.30;;
72676;SDS011;60755;51.374;10.662;2023-11-19T06:08:26;2.77;;;2.60;;
72676;SDS011;60755;51.374;10.662;2023-11-19T06:10:56;2.37;;;2.27;;
72676;SDS011;60755;51.374;10.662;2023-11-19T06:13:23;2.40;;;2.30;;
72676;SDS011;60755;51.374;10.662;2023-11-19T06:15:51;2.60;;;2.40;;
72676;SDS011;60755;51.374;10.662;2023-11-19T06:18:18;1.97;;;1.97;;
72676;SDS011;60755;51.374;10.662;2023-11-19T06:20:46;2.30;;;2.10;;
72676;SDS011;60755;51.374;10.662;2023-11-19T06:23:13;2.00;;;1.90;;
72676;SDS011;60755;51.374;10.662;2023-11-19T06:25:39;1.53;;;1.53;;
72676;SDS011;60755;51.374;10.662;2023-11-19T06:28:08;1.50;;;1.50;;
72676;SDS011;60755;51.374;10.662;2023-11-19T06:30:35;1.40;;;1.40;;
72676;SDS011;60755;51.374;10.662;2023-11-19T06:33:02;2.03;;;1.93;;
72676;SDS011;60755;51.374;10.662;2023-11-19T06:35:29;1.90;;;1.90;;
72676;SDS011;60755;51.374;10.662;2023-11-19T06:38:01;2.40;;;2.20;;
72676;SDS011;60755;51.374;10.662;2023-11-19T06:40:29;2.40;;;2.30;;
72676;SDS011;60755;51.374;10.662;2023-11-19T06:42:56;2.90;;;2.70;;
72676;SDS011;60755;51.374;10.662;2023-11-19T06:45:25;2.60;;;2.40;;
72676;SDS011;60755;51.374;10.662;2023-11-19T06:47:52;2.60;;;2.50;;
72676;SDS011;60755;51.374;10.662;2023-11-19T06:50:18;2.70;;;2.60;;
72676;SDS011;60755;51.374;10.662;2023-11-19T06:52:45;2.93;;;2.80;;
72676;SDS011;60755;51.374;10.662;2023-11-19T06:55:13;3.10;;;2.90;;
72676;SDS011;60755;51.374;10.662;2023-11-19T06:57:40;2.87;;;2.67;;
72676;SDS011;60755;51.374;10.662;2023-11-19T07:00:07;2.80;;;2.60;;
72676;SDS011;60755;51.374;10.662;2023-11-19T07:02:38;3.00;;;2.70;;
72676;SDS011;60755;51.374;10.662;2023-11-19T07:05:05;2.40;;;2.30;;
72676;SDS011;60755;51.374;10.662;2023-11-19T07:07:33;2.70;;;2.60;;
72676;SDS011;60755;51.374;10.662;2023-11-19T07:10:01;3.00;;;2.80;;
72676;SDS011;60755;51.374;10.662;2023-11-19T07:12:29;3.03;;;2.80;;
72676;SDS011;60755;51.374;10.662;2023-11-19T07:14:56;4.03;;;2.63;;
72676;SDS011;60755;51.374;10.662;2023-11-19T07:17:23;5.07;;;2.40;;
72676;SDS011;60755;51.374;10.662;2023-11-19T07:19:52;2.90;;;2.70;;
72676;SDS011;60755;51.374;10.662;2023-11-19T07:22:18;2.47;;;2.20;;
72676;SDS011;60755;51.374;10.662;2023-11-19T07:24:45;2.60;;;2.50;;
72676;SDS011;60755;51.374;10.662;2023-11-19T07:27:12;3.67;;;2.23;;
72676;SDS011;60755;51.374;10.662;2023-11-19T07:29:39;2.57;;;2.37;;
72676;SDS011;60755;51.374;10.662;2023-11-19T07:32:06;4.03;;;3.17;;
72676;SDS011;60755;51.374;10.662;2023-11-19T07:34:34;3.03;;;2.50;;
72676;SDS011;60755;51.374;10.662;2023-11-19T07:37:02;2.70;;;2.50;;
72676;SDS011;60755;51.374;10.662;2023-11-19T07:39:30;2.60;;;2.40;;
72676;SDS011;60755;51.374;10.662;2023-11-19T07:41:57;2.50;;;2.30;;
72676;SDS011;60755;51.374;10.662;2023-11-19T07:44:24;3.47;;;2.63;;
72676;SDS011;60755;51.374;10.662;2023-11-19T07:46:51;4.37;;;3.50;;
72676;SDS011;60755;51.374;10.662;2023-11-19T07:49:18;6.30;;;3.30;;
72676;SDS011;60755;51.374;10.662;2023-11-19T07:51:45;5.60;;;2.90;;
72676;SDS011;60755;51.374;10.662;2023-11-19T07:54:13;4.10;;;3.30;;
72676;SDS011;60755;51.374;10.662;2023-11-19T07:56:40;2.47;;;2.20;;
72676;SDS011;60755;51.374;10.662;2023-11-19T07:59:07;2.47;;;2.30;;
72676;SDS011;60755;51.374;10.662;2023-11-19T08:01:34;2.83;;;2.63;;
72676;SDS011;60755;51.374;10.662;2023-11-19T08:04:01;4.10;;;2.93;;
72676;SDS011;60755;51.374;10.662;2023-11-19T08:06:28;2.97;;;2.63;;
72676;SDS011;60755;51.374;10.662;2023-11-19T08:08:55;8.20;;;3.10;;
72676;SDS011;60755;51.374;10.662;2023-11-19T08:11:23;3.60;;;3.30;;
72676;SDS011;60755;51.374;10.662;2023-11-19T08:13:50;10.23;;;6.10;;
72676;SDS011;60755;51.374;10.662;2023-11-19T08:16:17;8.10;;;5.87;;
72676;SDS011;60755;51.374;10.662;2023-11-19T08:18:44;6.00;;;2.60;;
72676;SDS011;60755;51.374;10.662;2023-11-19T08:21:11;3.77;;;2.60;;
72676;SDS011;60755;51.374;10.662;2023-11-19T08:23:39;3.53;;;3.23;;
72676;SDS011;60755;51.374;10.662;2023-11-19T08:26:05;3.87;;;3.57;;
72676;SDS011;60755;51.374;10.662;2023-11-19T08:28:34;4.80;;;3.57;;
72676;SDS011;60755;51.374;10.662;2023-11-19T08:31:01;3.57;;;3.30;;
72676;SDS011;60755;51.374;10.662;2023-11-19T08:33:29;3.83;;;3.20;;
72676;SDS011;60755;51.374;10.662;2023-11-19T08:35:56;3.23;;;3.00;;
72676;SDS011;60755;51.374;10.662;2023-11-19T08:38:23;2.67;;;2.47;;
72676;SDS011;60755;51.374;10.662;2023-11-19T08:40:50;2.73;;;2.20;;
72676;SDS011;60755;51.374;10.662;2023-11-19T08:43:18;3.70;;;2.30;;
72676;SDS011;60755;51.374;10.662;2023-11-19T08:45:46;4.20;;;3.10;;
72676;SDS011;60755;51.374;10.662;2023-11-19T08:48:13;2.50;;;2.30;;
72676;SDS011;60755;51.374;10.662;2023-11-19T08:50:40;2.77;;;2.57;;
72676;SDS011;60755;51.374;10.662;2023-11-19T08:53:07;3.20;;;2.40;;
72676;SDS011;60755;51.374;10.662;2023-11-19T08:55:34;3.57;;;2.30;;
72676;SDS011;60755;51.374;10.662;2023-11-19T08:58:02;6.83;;;2.63;;
72676;SDS011;60755;51.374;10.662;2023-11-19T09:00:29;7.20;;;2.50;;
72676;SDS011;60755;51.374;10.662;2023-11-19T09:02:59;4.17;;;2.70;;
72676;SDS011;60755;51.374;10.662;2023-11-19T09:05:26;5.33;;;2.80;;
72676;SDS011;60755;51.374;10.662;2023-11-19T09:07:53;3.27;;;2.00;;
72676;SDS011;60755;51.374;10.662;2023-11-19T09:10:20;5.17;;;2.20;;
72676;SDS011;60755;51.374;10.662;2023-11-19T09:12:47;5.03;;;2.30;;
72676;SDS011;60755;51.374;10.662;2023-11-19T09:15:14;3.77;;;2.60;;
72676;SDS011;60755;51.374;10.662;2023-11-19T09:17:41;5.53;;;2.00;;
72676;SDS011;60755;51.374;10.662;2023-11-19T09:20:10;7.23;;;3.50;;
72676;SDS011;60755;51.374;10.662;2023-11-19T09:22:40;7.67;;;4.17;;
72676;SDS011;60755;51.374;10.662;2023-11-19T09:25:07;13.07;;;6.53;;
72676;SDS011;60755;51.374;10.662;2023-11-19T09:27:35;12.17;;;5.73;;
72676;SDS011;60755;51.374;10.662;2023-11-19T09:30:02;6.90;;;3.97;;
72676;SDS011;60755;51.374;10.662;2023-11-19T09:32:29;9.00;;;4.13;;
72676;SDS011;60755;51.374;10.662;2023-11-19T09:34:56;6.83;;;3.07;;
72676;SDS011;60755;51.374;10.662;2023-11-19T09:37:25;5.50;;;2.63;;
72676;SDS011;60755;51.374;10.662;2023-11-19T09:39:52;9.03;;;3.23;;
72676;SDS011;60755;51.374;10.662;2023-11-19T09:42:19;6.17;;;2.67;;
72676;SDS011;60755;51.374;10.662;2023-11-19T09:44:46;13.27;;;3.50;;
72676;SDS011;60755;51.374;10.662;2023-11-19T09:47:14;6.83;;;4.23;;
72676;SDS011;60755;51.374;10.662;2023-11-19T09:49:42;6.93;;;4.40;;
72676;SDS011;60755;51.374;10.662;2023-11-19T09:52:13;8.23;;;4.13;;
72676;SDS011;60755;51.374;10.662;2023-11-19T09:54:42;7.03;;;3.83;;
72676;SDS011;60755;51.374;10.662;2023-11-19T09:57:08;6.97;;;3.90;;
72676;SDS011;60755;51.374;10.662;2023-11-19T09:59:37;11.00;;;4.83;;
72676;SDS011;60755;51.374;10.662;2023-11-19T10:02:05;9.80;;;4.27;;
72676;SDS011;60755;51.374;10.662;2023-11-19T10:04:33;5.60;;;2.40;;
72676;SDS011;60755;51.374;10.662;2023-11-19T10:07:02;6.10;;;3.00;;
72676;SDS011;60755;51.374;10.662;2023-11-19T10:09:30;10.20;;;5.40;;
72676;SDS011;60755;51.374;10.662;2023-11-19T10:11:58;7.67;;;3.20;;
72676;SDS011;60755;51.374;10.662;2023-11-19T10:14:25;12.13;;;4.90;;
72676;SDS011;60755;51.374;10.662;2023-11-19T10:16:54;8.20;;;3.60;;
72676;SDS011;60755;51.374;10.662;2023-11-19T10:19:22;11.20;;;4.70;;
72676;SDS011;60755;51.374;10.662;2023-11-19T10:21:49;16.90;;;6.77;;
72676;SDS011;60755;51.374;10.662;2023-11-19T10:24:16;11.33;;;4.27;;
72676;SDS011;60755;51.374;10.662;2023-11-19T10:26:58;10.50;;;4.27;;
72676;SDS011;60755;51.374;10.662;2023-11-19T10:29:26;12.23;;;4.40;;
72676;SDS011;60755;51.374;10.662;2023-11-19T10:31:57;14.23;;;4.73;;
72676;SDS011;60755;51.374;10.662;2023-11-19T10:34:25;20.33;;;8.60;;
72676;SDS011;60755;51.374;10.662;2023-11-19T10:36:52;11.57;;;3.93;;
72676;SDS011;60755;51.374;10.662;2023-11-19T10:39:20;10.53;;;3.77;;
72676;SDS011;60755;51.374;10.662;2023-11-19T10:41:49;36.07;;;17.87;;
72676;SDS011;60755;51.374;10.662;2023-11-19T10:47:09;17.80;;;8.97;;
72676;SDS011;60755;51.374;10.662;2023-11-19T10:49:39;13.07;;;8.17;;
72676;SDS011;60755;51.374;10.662;2023-11-19T10:52:06;15.20;;;6.13;;
72676;SDS011;60755;51.374;10.662;2023-11-19T10:54:35;29.03;;;14.33;;
72676;SDS011;60755;51.374;10.662;2023-11-19T10:57:06;29.50;;;14.73;;
72676;SDS011;60755;51.374;10.662;2023-11-19T10:59:36;22.67;;;9.97;;
72676;SDS011;60755;51.374;10.662;2023-11-19T11:02:08;38.53;;;19.93;;
72676;SDS011;60755;51.374;10.662;2023-11-19T11:04:40;36.70;;;15.97;;
72676;SDS011;60755;51.374;10.662;2023-11-19T11:07:08;26.23;;;11.73;;
72676;SDS011;60755;51.374;10.662;2023-11-19T11:09:36;20.30;;;9.03;;
72676;SDS011;60755;51.374;10.662;2023-11-19T11:12:04;16.90;;;7.13;;
72676;SDS011;60755;51.374;10.662;2023-11-19T11:14:33;23.90;;;9.50;;
72676;SDS011;60755;51.374;10.662;2023-11-19T11:17:06;10.20;;;4.73;;
72676;SDS011;60755;51.374;10.662;2023-11-19T11:19:38;10.27;;;4.60;;
72676;SDS011;60755;51.374;10.662;2023-11-19T11:22:06;11.13;;;4.30;;
72676;SDS011;60755;51.374;10.662;2023-11-19T11:24:40;10.60;;;3.60;;
72676;SDS011;60755;51.374;10.662;2023-11-19T11:27:27;9.83;;;3.50;;
72676;SDS011;60755;51.374;10.662;2023-11-19T11:30:11;13.93;;;3.87;;
72676;SDS011;60755;51.374;10.662;2023-11-19T11:32:49;12.00;;;2.83;;
72676;SDS011;60755;51.374;10.662;2023-11-19T11:35:29;11.37;;;3.13;;
72676;SDS011;60755;51.374;10.662;2023-11-19T11:38:03;8.27;;;2.50;;
72676;SDS011;60755;51.374;10.662;2023-11-19T11:40:33;10.20;;;3.00;;
72676;SDS011;60755;51.374;10.662;2023-11-19T11:43:01;9.83;;;3.10;;
72676;SDS011;60755;51.374;10.662;2023-11-19T11:45:38;10.00;;;3.70;;
72676;SDS011;60755;51.374;10.662;2023-11-19T11:48:11;13.20;;;4.90;;
72676;SDS011;60755;51.374;10.662;2023-11-19T11:50:49;12.30;;;6.07;;
72676;SDS011;60755;51.374;10.662;2023-11-19T11:53:19;23.27;;;6.50;;
72676;SDS011;60755;51.374;10.662;2023-11-19T11:55:56;9.57;;;4.03;;
72676;SDS011;60755;51.374;10.662;2023-11-19T11:58:25;13.73;;;4.60;;
72676;SDS011;60755;51.374;10.662;2023-11-19T12:00:57;16.97;;;6.27;;
72676;SDS011;60755;51.374;10.662;2023-11-19T12:03:26;12.47;;;4.53;;
72676;SDS011;60755;51.374;10.662;2023-11-19T12:05:55;13.27;;;3.60;;
72676;SDS011;60755;51.374;10.662;2023-11-19T12:08:28;8.00;;;2.70;;
72676;SDS011;60755;51.374;10.662;2023-11-19T12:10:57;7.90;;;3.13;;
72676;SDS011;60755;51.374;10.662;2023-11-19T12:13:29;6.30;;;2.60;;
72676;SDS011;60755;51.374;10.662;2023-11-19T12:16:12;9.77;;;3.17;;
72676;SDS011;60755;51.374;10.662;2023-11-19T12:18:39;9.43;;;2.87;;
72676;SDS011;60755;51.374;10.662;2023-11-19T12:21:09;13.37;;;3.33;;
72676;SDS011;60755;51.374;10.662;2023-11-19T12:23:43;14.90;;;2.90;;
72676;SDS011;60755;51.374;10.662;2023-11-19T12:26:31;7.23;;;2.30;;
72676;SDS011;60755;51.374;10.662;2023-11-19T12:29:00;14.67;;;2.80;;
72676;SDS011;60755;51.374;10.662;2023-11-19T12:31:31;10.57;;;2.77;;
72676;SDS011;60755;51.374;10.662;2023-11-19T12:34:05;10.87;;;2.60;;
72676;SDS011;60755;51.374;10.662;2023-11-19T12:36:39;8.70;;;2.80;;
72676;SDS011;60755;51.374;10.662;2023-11-19T12:39:10;10.17;;;2.50;;
72676;SDS011;60755;51.374;10.662;2023-11-19T12:41:48;9.73;;;2.63;;
72676;SDS011;60755;51.374;10.662;2023-11-19T12:44:17;9.30;;;3.50;;
72676;SDS011;60755;51.374;10.662;2023-11-19T12:46:44;9.77;;;2.43;;
72676;SDS011;60755;51.374;10.662;2023-11-19T12:49:12;11.53;;;2.67;;
72676;SDS011;60755;51.374;10.662;2023-11-19T12:51:41;12.43;;;3.57;;
72676;SDS011;60755;51.374;10.662;2023-11-19T12:54:08;7.70;;;2.83;;
72676;SDS011;60755;51.374;10.662;2023-11-19T12:56:36;5.93;;;2.50;;
72676;SDS011;60755;51.374;10.662;2023-11-19T12:59:18;8.40;;;3.23;;
72676;SDS011;60755;51.374;10.662;2023-11-19T13:05:39;8.23;;;2.73;;
72676;SDS011;60755;51.374;10.662;2023-11-19T13:08:25;9.07;;;3.03;;
72676;SDS011;60755;51.374;10.662;2023-11-19T13:11:08;9.23;;;3.13;;
72676;SDS011;60755;51.374;10.662;2023-11-19T13:14:02;8.03;;;2.57;;
72676;SDS011;60755;51.374;10.662;2023-11-19T13:16:42;16.20;;;4.60;;
72676;SDS011;60755;51.374;10.662;2023-11-19T13:19:26;10.50;;;2.70;;
72676;SDS011;60755;51.374;10.662;2023-11-19T13:22:03;9.50;;;4.20;;
72676;SDS011;60755;51.374;10.662;2023-11-19T13:24:50;7.10;;;2.70;;
72676;SDS011;60755;51.374;10.662;2023-11-19T13:27:31;7.80;;;3.00;;
72676;SDS011;60755;51.374;10.662;2023-11-19T13:30:04;6.57;;;2.63;;
72676;SDS011;60755;51.374;10.662;2023-11-19T13:32:36;9.07;;;2.63;;
72676;SDS011;60755;51.374;10.662;2023-11-19T13:35:10;7.30;;;2.70;;
72676;SDS011;60755;51.374;10.662;2023-11-19T13:37:38;8.90;;;2.70;;
72676;SDS011;60755;51.374;10.662;2023-11-19T13:40:12;7.37;;;2.63;;
72676;SDS011;60755;51.374;10.662;2023-11-19T13:42:42;10.53;;;2.80;;
72676;SDS011;60755;51.374;10.662;2023-11-19T13:45:20;8.17;;;3.07;;
72676;SDS011;60755;51.374;10.662;2023-11-19T13:47:51;8.87;;;2.60;;
72676;SDS011;60755;51.374;10.662;2023-11-19T13:50:26;10.40;;;3.00;;
72676;SDS011;60755;51.374;10.662;2023-11-19T13:53:20;17.17;;;5.77;;
72676;SDS011;60755;51.374;10.662;2023-11-19T13:55:51;10.80;;;4.10;;
72676;SDS011;60755;51.374;10.662;2023-11-19T13:58:28;9.03;;;4.13;;
72676;SDS011;60755;51.374;10.662;2023-11-19T14:01:04;9.90;;;3.07;;
72676;SDS011;60755;51.374;10.662;2023-11-19T14:03:40;9.37;;;2.90;;
72676;SDS011;60755;51.374;10.662;2023-11-19T14:06:09;10.57;;;3.13;;
72676;SDS011;60755;51.374;10.662;2023-11-19T14:08:44;8.77;;;3.00;;
72676;SDS011;60755;51.374;10.662;2023-11-19T14:11:15;8.53;;;3.10;;
72676;SDS011;60755;51.374;10.662;2023-11-19T14:13:44;13.70;;;4.20;;
72676;SDS011;60755;51.374;10.662;2023-11-19T14:16:13;9.47;;;3.40;;
72676;SDS011;60755;51.374;10.662;2023-11-19T14:18:42;10.17;;;2.70;;
72676;SDS011;60755;51.374;10.662;2023-11-19T14:24:17;10.77;;;3.87;;
72676;SDS011;60755;51.374;10.662;2023-11-19T14:26:58;15.53;;;4.10;;
72676;SDS011;60755;51.374;10.662;2023-11-19T14:29:27;13.00;;;4.70;;
72676;SDS011;60755;51.374;10.662;2023-11-19T14:32:12;16.43;;;3.90;;
72676;SDS011;60755;51.374;10.662;2023-11-19T14:34:52;12.43;;;3.97;;
72676;SDS011;60755;51.374;10.662;2023-11-19T14:37:32;11.97;;;4.07;;
72676;SDS011;60755;51.374;10.662;2023-11-19T14:40:06;15.03;;;4.63;;
72676;SDS011;60755;51.374;10.662;2023-11-19T14:42:54;14.20;;;4.60;;
72676;SDS011;60755;51.374;10.662;2023-11-19T14:45:52;7.77;;;3.63;;
72676;SDS011;60755;51.374;10.662;2023-11-19T14:48:42;19.47;;;5.07;;
72676;SDS011;60755;51.374;10.662;2023-11-19T14:51:24;8.60;;;4.20;;
72676;SDS011;60755;51.374;10.662;2023-11-19T14:53:57;9.97;;;3.87;;